createdAt,value
2019-06-27T00:00:09.231Z,6.87
2019-06-27T00:02:40.933Z,7.03
2019-06-27T00:05:14.638Z,7.07
2019-06-27T00:07:46.352Z,7.53
2019-06-27T00:10:18.241Z,6.67
2019-06-27T00:12:49.958Z,6.47
2019-06-27T00:15:21.859Z,6.70
2019-06-27T00:17:53.688Z,7.00
2019-06-27T00:20:25.393Z,6.07
2019-06-27T00:22:57.105Z,6.83
2019-06-27T00:25:29.018Z,6.30
2019-06-27T00:28:00.824Z,6.40
2019-06-27T00:30:32.620Z,6.00
2019-06-27T00:33:04.343Z,5.93
2019-06-27T00:35:36.101Z,6.43
2019-06-27T00:38:07.816Z,5.87
2019-06-27T00:40:39.520Z,5.73
2019-06-27T00:43:11.238Z,5.00
2019-06-27T00:45:43.061Z,5.53
2019-06-27T00:48:14.861Z,5.53
2019-06-27T00:50:46.566Z,5.40
2019-06-27T00:53:18.474Z,5.63
2019-06-27T00:55:50.177Z,4.80
2019-06-27T00:58:22.370Z,5.37
2019-06-27T01:00:54.073Z,5.20
2019-06-27T01:03:25.796Z,4.57
2019-06-27T01:05:57.490Z,3.87
2019-06-27T01:08:29.203Z,4.80
2019-06-27T01:11:00.916Z,5.20
2019-06-27T01:13:32.636Z,4.97
2019-06-27T01:16:04.428Z,4.40
2019-06-27T01:18:36.249Z,4.67
2019-06-27T01:21:08.060Z,4.37
2019-06-27T01:23:39.781Z,3.77
2019-06-27T01:26:11.568Z,4.20
2019-06-27T01:28:43.653Z,3.70
2019-06-27T01:31:15.368Z,4.17
2019-06-27T01:33:47.401Z,4.17
2019-06-27T01:36:19.090Z,4.67
2019-06-27T01:38:50.805Z,4.10
2019-06-27T01:41:22.513Z,4.07
2019-06-27T01:43:54.328Z,3.30
2019-06-27T01:46:26.059Z,3.80
2019-06-27T01:48:57.777Z,3.37
2019-06-27T01:51:29.564Z,3.03
2019-06-27T01:54:01.353Z,3.33
2019-06-27T01:56:33.184Z,3.00
2019-06-27T01:59:04.891Z,3.60
2019-06-27T02:01:36.580Z,3.10
2019-06-27T02:04:08.441Z,2.73
2019-06-27T02:06:40.271Z,3.00
2019-06-27T02:09:12.279Z,2.87
2019-06-27T02:11:44.081Z,3.30
2019-06-27T02:14:15.783Z,2.90
2019-06-27T02:16:47.570Z,3.53
2019-06-27T02:19:19.409Z,2.77
2019-06-27T02:21:51.126Z,3.03
2019-06-27T02:24:22.928Z,2.87
2019-06-27T02:26:54.631Z,3.20
2019-06-27T02:29:26.336Z,3.60
2019-06-27T02:31:58.052Z,3.00
2019-06-27T02:34:29.787Z,3.47
2019-06-27T02:37:01.561Z,3.07
2019-06-27T02:39:33.277Z,2.73
2019-06-27T02:42:05.077Z,3.20
2019-06-27T02:44:36.806Z,2.80
2019-06-27T02:47:08.611Z,2.93
2019-06-27T02:49:40.351Z,3.57
2019-06-27T02:52:12.237Z,3.00
2019-06-27T02:54:43.967Z,2.83
2019-06-27T02:57:15.851Z,3.03
2019-06-27T02:59:47.659Z,3.33
2019-06-27T03:02:19.353Z,2.70
2019-06-27T03:04:51.104Z,3.07
2019-06-27T03:07:22.909Z,2.80
2019-06-27T03:09:55.059Z,3.50
2019-06-27T03:12:26.976Z,3.17
2019-06-27T03:14:58.793Z,2.97
2019-06-27T03:17:30.514Z,3.17
2019-06-27T03:20:02.754Z,3.60
2019-06-27T03:22:34.450Z,3.67
2019-06-27T03:25:06.370Z,3.30
2019-06-27T03:27:38.164Z,3.43
2019-06-27T03:30:10.586Z,3.43
2019-06-27T03:32:42.392Z,4.60
2019-06-27T03:35:14.329Z,4.00
2019-06-27T03:37:46.118Z,3.30
2019-06-27T03:40:18.233Z,3.50
2019-06-27T03:42:50.039Z,2.67
2019-06-27T03:45:21.990Z,2.53
2019-06-27T03:47:53.791Z,2.97
2019-06-27T03:50:25.600Z,2.67
2019-06-27T03:52:57.307Z,3.10
2019-06-27T03:55:29.033Z,2.43
2019-06-27T03:58:00.730Z,2.30
2019-06-27T04:00:33.058Z,2.27
2019-06-27T04:03:04.755Z,2.83
2019-06-27T04:05:36.484Z,2.73
2019-06-27T04:08:08.281Z,3.13
2019-06-27T04:10:40.111Z,2.97
2019-06-27T04:13:11.903Z,2.47
2019-06-27T04:15:43.836Z,2.77
2019-06-27T04:18:15.533Z,2.40
2019-06-27T04:20:47.367Z,2.50
2019-06-27T04:23:19.235Z,3.10
2019-06-27T04:25:51.026Z,3.00
2019-06-27T04:28:22.741Z,3.53
2019-06-27T04:30:54.461Z,2.97
2019-06-27T04:33:26.293Z,2.63
2019-06-27T04:35:58.102Z,2.80
2019-06-27T04:38:29.801Z,3.70
2019-06-27T04:41:01.540Z,3.90
2019-06-27T04:43:33.338Z,3.33
2019-06-27T04:46:05.045Z,3.60
2019-06-27T04:48:36.761Z,3.47
2019-06-27T04:51:08.486Z,2.63
2019-06-27T04:53:40.208Z,2.60
2019-06-27T04:56:11.973Z,1.90
2019-06-27T04:58:43.800Z,3.43
2019-06-27T05:01:15.518Z,3.03
2019-06-27T05:03:47.322Z,2.23
2019-06-27T05:06:19.144Z,3.00
2019-06-27T05:08:50.847Z,2.73
2019-06-27T05:11:22.584Z,2.00
2019-06-27T05:13:54.280Z,2.77
2019-06-27T05:16:26.002Z,2.30
2019-06-27T05:18:57.731Z,2.75
2019-06-27T05:21:29.452Z,2.58
2019-06-27T05:24:01.162Z,2.90
2019-06-27T05:26:32.921Z,1.95
2019-06-27T05:29:04.717Z,2.27
2019-06-27T05:31:36.431Z,1.98
2019-06-27T05:34:08.242Z,2.27
2019-06-27T05:36:40.056Z,2.83
2019-06-27T05:39:11.827Z,2.15
2019-06-27T05:41:43.561Z,2.40
2019-06-27T05:44:15.352Z,2.40
2019-06-27T05:46:47.064Z,2.33
2019-06-27T05:49:18.770Z,1.70
2019-06-27T05:51:50.572Z,2.45
2019-06-27T05:54:22.288Z,1.95
2019-06-27T05:56:54.005Z,2.77
2019-06-27T05:59:25.714Z,2.40
2019-06-27T06:01:57.465Z,1.92
2019-06-27T06:04:29.265Z,2.15
2019-06-27T06:07:00.994Z,2.42
2019-06-27T06:09:33.108Z,2.65
2019-06-27T06:12:05.086Z,1.80
2019-06-27T06:14:36.984Z,2.67
2019-06-27T06:17:08.701Z,1.82
2019-06-27T06:19:40.399Z,2.25
2019-06-27T06:22:12.115Z,2.33
2019-06-27T06:24:43.818Z,2.83
2019-06-27T06:27:15.533Z,3.00
2019-06-27T06:29:47.270Z,3.00
2019-06-27T06:32:19.074Z,1.87
2019-06-27T06:34:50.813Z,2.47
2019-06-27T06:37:23.273Z,2.33
2019-06-27T06:39:55.006Z,2.90
2019-06-27T06:42:26.811Z,2.10
2019-06-27T06:44:58.533Z,2.87
2019-06-27T06:47:30.345Z,2.92
2019-06-27T06:50:02.394Z,2.45
2019-06-27T06:52:34.215Z,2.45
2019-06-27T06:55:06.115Z,2.92
2019-06-27T06:57:37.860Z,2.90
2019-06-27T07:00:10.253Z,3.02
2019-06-27T07:02:42.240Z,2.92
2019-06-27T07:05:13.951Z,2.17
2019-06-27T07:07:45.693Z,2.60
2019-06-27T07:10:17.606Z,3.02
2019-06-27T07:12:49.427Z,2.77
2019-06-27T07:15:21.261Z,2.40
2019-06-27T07:17:52.999Z,2.40
2019-06-27T07:20:24.843Z,2.80
2019-06-27T07:22:56.738Z,2.95
2019-06-27T07:25:28.821Z,2.92
2019-06-27T07:28:00.543Z,2.72
2019-06-27T07:30:32.352Z,2.62
2019-06-27T07:33:04.286Z,2.10
2019-06-27T07:35:36.131Z,2.60
2019-06-27T07:38:07.934Z,2.80
2019-06-27T07:40:39.775Z,3.25
2019-06-27T07:43:11.589Z,2.62
2019-06-27T07:45:43.292Z,3.08
2019-06-27T07:48:15.025Z,2.17
2019-06-27T07:50:46.839Z,2.92
2019-06-27T07:53:18.693Z,2.35
2019-06-27T07:55:50.389Z,2.40
2019-06-27T07:58:22.233Z,2.90
2019-06-27T08:00:54.059Z,3.15
2019-06-27T08:03:25.781Z,2.90
2019-06-27T08:05:57.502Z,2.35
2019-06-27T08:08:29.356Z,2.77
2019-06-27T08:11:01.262Z,2.67
2019-06-27T08:13:33.101Z,3.02
2019-06-27T08:16:04.889Z,2.45
2019-06-27T08:18:36.687Z,3.08
2019-06-27T08:21:08.400Z,3.30
2019-06-27T08:23:41.913Z,2.95
2019-06-27T08:26:13.738Z,3.12
2019-06-27T08:28:45.553Z,2.83
2019-06-27T08:31:17.247Z,3.17
2019-06-27T08:33:48.979Z,3.08
2019-06-27T08:36:20.689Z,3.00
2019-06-27T08:38:52.398Z,2.47
2019-06-27T08:41:24.097Z,3.40
2019-06-27T08:43:55.818Z,2.98
2019-06-27T08:46:29.796Z,3.45
2019-06-27T08:49:01.134Z,2.80
2019-06-27T08:51:32.832Z,2.83
2019-06-27T08:54:04.662Z,3.08
2019-06-27T08:56:36.565Z,3.40
2019-06-27T08:59:08.284Z,3.15
2019-06-27T09:01:40.086Z,3.02
2019-06-27T09:04:11.834Z,2.92
2019-06-27T09:06:43.549Z,3.22
2019-06-27T09:09:15.380Z,2.83
2019-06-27T09:11:47.094Z,2.40
2019-06-27T09:14:18.901Z,3.45
2019-06-27T09:16:50.700Z,3.05
2019-06-27T09:19:22.705Z,3.08
2019-06-27T09:21:54.470Z,3.27
2019-06-27T09:24:26.204Z,3.02
2019-06-27T09:26:57.938Z,3.08
2019-06-27T09:29:29.659Z,2.90
2019-06-27T09:32:01.391Z,2.77
2019-06-27T09:34:33.236Z,3.47
2019-06-27T09:37:05.032Z,2.80
2019-06-27T09:39:36.752Z,3.25
2019-06-27T09:42:08.665Z,2.50
2019-06-27T09:44:42.256Z,3.42
2019-06-27T09:47:14.199Z,3.50
2019-06-27T09:49:46.028Z,3.55
2019-06-27T09:52:17.829Z,3.37
2019-06-27T09:54:49.625Z,2.70
2019-06-27T09:57:21.340Z,3.27
2019-06-27T09:59:53.059Z,2.95
2019-06-27T10:02:40.279Z,2.40
2019-06-27T10:04:58.468Z,3.08
2019-06-27T10:07:30.190Z,3.22
2019-06-27T10:10:02.005Z,3.17
2019-06-27T10:12:42.278Z,2.83
2019-06-27T10:15:07.768Z,3.20
2019-06-27T10:17:39.669Z,3.10
2019-06-27T10:20:13.429Z,2.67
2019-06-27T10:22:45.316Z,3.08
2019-06-27T10:25:17.228Z,3.67
2019-06-27T10:27:48.945Z,3.08
2019-06-27T10:30:22.273Z,3.02
2019-06-27T10:32:59.125Z,3.80
2019-06-27T10:35:27.652Z,3.67
2019-06-27T10:37:59.356Z,3.17
2019-06-27T10:40:31.092Z,3.02
2019-06-27T10:43:02.993Z,3.30
2019-06-27T10:45:34.709Z,3.00
2019-06-27T10:48:06.415Z,2.70
2019-06-27T10:50:38.241Z,3.80
2019-06-27T10:53:09.952Z,3.70
2019-06-27T10:55:41.685Z,3.10
2019-06-27T10:58:13.389Z,3.47
2019-06-27T11:00:45.299Z,3.47
2019-06-27T11:03:17.153Z,2.95
2019-06-27T11:05:48.878Z,3.17
2019-06-27T11:08:20.632Z,2.85
2019-06-27T11:10:52.451Z,3.02
2019-06-27T11:13:24.264Z,3.17
2019-06-27T11:15:56.017Z,3.08
2019-06-27T11:18:27.797Z,3.20
2019-06-27T11:20:59.616Z,3.22
2019-06-27T11:23:31.418Z,3.08
2019-06-27T11:26:03.264Z,2.52
2019-06-27T11:28:35.005Z,3.00
2019-06-27T11:31:06.923Z,3.00
2019-06-27T11:33:38.726Z,2.77
2019-06-27T11:36:10.456Z,3.08
2019-06-27T11:38:42.156Z,2.55
2019-06-27T11:41:13.864Z,2.42
2019-06-27T11:43:45.572Z,3.25
2019-06-27T11:46:17.297Z,3.20
2019-06-27T11:48:48.985Z,2.95
2019-06-27T11:51:20.688Z,2.98
2019-06-27T11:53:52.547Z,2.80
2019-06-27T11:56:24.340Z,3.58
2019-06-27T11:58:56.172Z,3.05
2019-06-27T12:01:28.047Z,3.12
2019-06-27T12:03:59.789Z,4.40
2019-06-27T12:06:31.516Z,4.47
2019-06-27T12:09:04.474Z,3.45
2019-06-27T12:11:36.192Z,2.50
2019-06-27T12:14:07.924Z,3.45
2019-06-27T12:16:39.740Z,2.87
2019-06-27T12:19:11.457Z,2.90
2019-06-27T12:21:43.169Z,3.08
2019-06-27T12:24:14.856Z,3.33
2019-06-27T12:26:46.707Z,2.85
2019-06-27T12:29:18.401Z,2.85
2019-06-27T12:31:51.743Z,2.55
2019-06-27T12:34:23.739Z,2.33
2019-06-27T12:36:55.502Z,2.50
2019-06-27T12:39:27.309Z,2.55
2019-06-27T12:41:59.029Z,3.72
2019-06-27T12:44:30.728Z,3.67
2019-06-27T12:47:02.443Z,2.42
2019-06-27T12:49:50.029Z,2.37
2019-06-27T12:52:07.746Z,2.70
2019-06-27T12:54:39.448Z,2.70
2019-06-27T12:57:11.173Z,2.62
2019-06-27T12:59:43.072Z,2.35
2019-06-27T13:02:14.891Z,2.55
2019-06-27T13:04:46.679Z,2.33
2019-06-27T13:07:18.408Z,2.75
2019-06-27T13:09:50.334Z,2.58
2019-06-27T13:12:22.240Z,2.45
2019-06-27T13:14:54.059Z,3.00
2019-06-27T13:17:25.765Z,2.42
2019-06-27T13:19:57.475Z,2.52
2019-06-27T13:22:29.200Z,2.37
2019-06-27T13:25:00.898Z,2.60
2019-06-27T13:27:32.643Z,9.98
2019-06-27T13:30:04.661Z,4.25
2019-06-27T13:32:36.400Z,3.22
2019-06-27T13:35:08.227Z,2.90
2019-06-27T13:37:39.932Z,2.52
2019-06-27T13:40:12.637Z,2.25
2019-06-27T13:42:44.450Z,2.20
2019-06-27T13:45:16.418Z,2.75
2019-06-27T13:47:48.239Z,2.22
2019-06-27T13:50:20.066Z,1.60
2019-06-27T13:52:54.640Z,2.00
2019-06-27T13:55:25.488Z,2.10
2019-06-27T13:57:57.782Z,2.50
2019-06-27T14:00:40.156Z,2.25
2019-06-27T14:03:12.164Z,2.50
2019-06-27T14:05:43.893Z,2.35
2019-06-27T14:08:15.621Z,2.00
2019-06-27T14:10:47.332Z,2.33
2019-06-27T14:13:19.156Z,1.85
2019-06-27T14:15:50.962Z,1.80
2019-06-27T14:18:22.676Z,1.98
2019-06-27T14:20:54.392Z,2.65
2019-06-27T14:23:26.112Z,2.62
2019-06-27T14:25:57.829Z,2.98
2019-06-27T14:28:29.666Z,2.27
2019-06-27T14:31:01.480Z,2.20
2019-06-27T14:33:33.201Z,2.30
2019-06-27T14:36:04.897Z,2.42
2019-06-27T14:38:36.720Z,2.40
2019-06-27T14:41:08.420Z,2.55
2019-06-27T14:43:40.140Z,2.17
2019-06-27T14:46:11.855Z,1.92
2019-06-27T14:48:43.598Z,2.72
2019-06-27T14:51:15.368Z,2.30
2019-06-27T14:53:47.102Z,3.40
2019-06-27T14:56:18.910Z,5.05
2019-06-27T14:58:50.631Z,3.33
2019-06-27T15:01:22.433Z,2.27
2019-06-27T15:03:54.152Z,2.75
2019-06-27T15:06:25.956Z,1.85
2019-06-27T15:08:57.690Z,2.85
2019-06-27T15:11:29.404Z,1.90
2019-06-27T15:14:01.125Z,2.30
2019-06-27T15:16:32.941Z,2.25
2019-06-27T15:19:04.772Z,2.45
2019-06-27T15:21:36.574Z,2.10
2019-06-27T15:24:08.412Z,1.87
2019-06-27T15:26:40.128Z,2.12
2019-06-27T15:29:11.965Z,1.90
2019-06-27T15:31:43.687Z,1.98
2019-06-27T15:34:15.515Z,2.17
2019-06-27T15:36:47.218Z,2.17
2019-06-27T15:39:19.062Z,2.35
2019-06-27T15:41:50.892Z,3.85
2019-06-27T15:44:22.728Z,3.27
2019-06-27T15:46:54.570Z,2.65
2019-06-27T15:49:29.997Z,2.25
2019-06-27T15:52:00.316Z,2.60
2019-06-27T15:54:32.131Z,2.72
2019-06-27T15:57:03.969Z,1.82
2019-06-27T15:59:35.710Z,2.47
2019-06-27T16:02:07.596Z,2.05
2019-06-27T16:04:39.349Z,2.22
2019-06-27T16:07:11.149Z,2.02
2019-06-27T16:09:42.883Z,2.33
2019-06-27T16:12:14.678Z,1.92
2019-06-27T16:14:46.486Z,2.17
2019-06-27T16:17:18.179Z,2.10
2019-06-27T16:19:50.129Z,2.10
2019-06-27T16:22:21.848Z,1.85
2019-06-27T16:24:53.680Z,1.70
2019-06-27T16:27:25.365Z,2.80
2019-06-27T16:29:57.112Z,2.35
2019-06-27T16:32:28.919Z,2.02
2019-06-27T16:35:00.679Z,1.90
2019-06-27T16:37:32.536Z,1.85
2019-06-27T16:40:05.209Z,2.17
2019-06-27T16:42:36.914Z,2.45
2019-06-27T16:45:09.237Z,2.85
2019-06-27T16:47:40.946Z,2.20
2019-06-27T16:50:13.044Z,2.15
2019-06-27T16:52:44.756Z,2.30
2019-06-27T16:55:17.044Z,2.17
2019-06-27T16:57:48.810Z,2.47
2019-06-27T17:00:21.260Z,2.12
2019-06-27T17:02:53.059Z,1.72
2019-06-27T17:05:24.874Z,1.60
2019-06-27T17:07:56.688Z,1.57
2019-06-27T17:10:28.600Z,1.55
2019-06-27T17:13:00.503Z,1.70
2019-06-27T17:15:32.250Z,1.90
2019-06-27T17:18:04.025Z,1.45
2019-06-27T17:20:35.817Z,1.40
2019-06-27T17:23:07.510Z,1.82
2019-06-27T17:25:39.307Z,2.67
2019-06-27T17:28:11.031Z,2.10
2019-06-27T17:30:42.884Z,2.35
2019-06-27T17:33:14.610Z,2.40
2019-06-27T17:35:46.350Z,1.82
2019-06-27T17:38:18.039Z,2.83
2019-06-27T17:40:49.970Z,1.87
2019-06-27T17:43:21.776Z,1.82
2019-06-27T17:45:53.601Z,1.75
2019-06-27T17:48:25.420Z,1.47
2019-06-27T17:50:57.741Z,2.25
2019-06-27T17:53:29.468Z,1.50
2019-06-27T17:56:01.210Z,1.80
2019-06-27T17:58:32.924Z,2.20
2019-06-27T18:01:04.821Z,1.65
2019-06-27T18:03:36.620Z,2.58
2019-06-27T18:06:08.354Z,1.32
2019-06-27T18:08:40.161Z,1.60
2019-06-27T18:11:12.032Z,2.35
2019-06-27T18:13:43.849Z,1.65
2019-06-27T18:16:15.708Z,1.70
2019-06-27T18:18:47.579Z,1.45
2019-06-27T18:21:19.306Z,1.70
2019-06-27T18:23:51.097Z,1.25
2019-06-27T18:26:22.821Z,1.60
2019-06-27T18:28:54.638Z,1.40
2019-06-27T18:31:26.352Z,2.05
2019-06-27T18:33:58.079Z,1.32
2019-06-27T18:36:29.806Z,1.95
2019-06-27T18:39:01.637Z,2.52
2019-06-27T18:41:33.452Z,1.92
2019-06-27T18:44:05.168Z,2.07
2019-06-27T18:46:36.993Z,2.00
2019-06-27T18:49:08.745Z,2.60
2019-06-27T18:51:40.449Z,2.00
2019-06-27T18:54:12.162Z,2.13
2019-06-27T18:56:43.885Z,5.77
2019-06-27T18:59:15.596Z,4.10
2019-06-27T19:01:47.334Z,3.03
2019-06-27T19:04:19.129Z,1.85
2019-06-27T19:06:50.950Z,1.80
2019-06-27T19:09:22.745Z,2.00
2019-06-27T19:11:54.464Z,1.97
2019-06-27T19:14:26.303Z,1.80
2019-06-27T19:16:58.126Z,1.70
2019-06-27T19:19:32.153Z,1.40
2019-06-27T19:22:23.682Z,1.27
2019-06-27T19:25:03.061Z,1.70
2019-06-27T19:27:34.876Z,1.70
2019-06-27T19:30:07.015Z,1.43
2019-06-27T19:32:39.035Z,1.90
2019-06-27T19:35:10.962Z,1.70
2019-06-27T19:37:42.776Z,1.53
2019-06-27T19:40:14.693Z,1.70
2019-06-27T19:42:46.600Z,1.60
2019-06-27T19:45:18.485Z,1.60
2019-06-27T19:47:50.243Z,2.00
2019-06-27T19:50:22.151Z,1.60
2019-06-27T19:52:53.960Z,1.80
2019-06-27T19:55:25.680Z,1.50
2019-06-27T19:57:57.441Z,1.73
2019-06-27T20:00:29.346Z,2.17
2019-06-27T20:03:01.197Z,1.50
2019-06-27T20:05:33.106Z,1.40
2019-06-27T20:08:18.469Z,1.87
2019-06-27T20:10:38.456Z,1.73
2019-06-27T20:13:10.308Z,1.60
2019-06-27T20:15:42.066Z,1.70
2019-06-27T20:18:13.921Z,1.67
2019-06-27T20:20:45.716Z,1.60
2019-06-27T20:23:17.553Z,2.10
2019-06-27T20:25:49.357Z,1.90
2019-06-27T20:28:21.081Z,1.80
2019-06-27T20:30:52.892Z,1.67
2019-06-27T20:33:24.651Z,1.73
2019-06-27T20:35:56.361Z,1.70
2019-06-27T20:38:34.874Z,1.90
2019-06-27T20:41:01.813Z,1.70
2019-06-27T20:43:33.771Z,2.30
2019-06-27T20:46:05.577Z,2.40
2019-06-27T20:48:37.296Z,4.10
2019-06-27T20:51:09.008Z,2.73
2019-06-27T20:53:40.729Z,2.43
2019-06-27T20:56:12.449Z,2.50
2019-06-27T20:58:44.174Z,2.47
2019-06-27T21:01:15.886Z,2.00
2019-06-27T21:03:47.601Z,2.30
2019-06-27T21:06:19.308Z,3.23
2019-06-27T21:08:52.008Z,2.80
2019-06-27T21:11:23.934Z,2.70
2019-06-27T21:13:56.167Z,3.00
2019-06-27T21:16:28.066Z,2.57
2019-06-27T21:18:59.880Z,3.10
2019-06-27T21:21:31.576Z,3.07
2019-06-27T21:24:03.646Z,3.23
2019-06-27T21:26:35.699Z,2.53
2019-06-27T21:29:07.421Z,3.07
2019-06-27T21:31:39.147Z,2.90
2019-06-27T21:34:10.986Z,3.43
2019-06-27T21:36:42.692Z,2.90
2019-06-27T21:39:14.412Z,3.10
2019-06-27T21:41:46.244Z,3.50
2019-06-27T21:44:17.972Z,3.47
2019-06-27T21:46:49.674Z,3.20
2019-06-27T21:49:21.513Z,2.90
2019-06-27T21:51:53.235Z,3.03
2019-06-27T21:54:24.963Z,3.17
2019-06-27T21:56:56.759Z,3.37
2019-06-27T21:59:28.502Z,3.07
2019-06-27T22:02:00.304Z,2.90
2019-06-27T22:04:32.043Z,2.70
2019-06-27T22:07:03.858Z,3.40
2019-06-27T22:09:35.779Z,3.40
2019-06-27T22:12:07.676Z,2.80
2019-06-27T22:14:39.430Z,3.27
2019-06-27T22:17:11.230Z,3.00
2019-06-27T22:19:43.025Z,2.93
2019-06-27T22:22:14.832Z,3.37
2019-06-27T22:24:46.683Z,3.10
2019-06-27T22:27:18.409Z,2.97
2019-06-27T22:29:50.129Z,3.03
2019-06-27T22:32:21.960Z,2.83
2019-06-27T22:34:53.706Z,3.30
2019-06-27T22:37:25.193Z,3.00
2019-06-27T22:40:15.564Z,3.60
2019-06-27T22:43:05.864Z,3.40
2019-06-27T22:45:56.348Z,3.60
2019-06-27T22:48:27.932Z,3.57
2019-06-27T22:51:08.627Z,3.40
2019-06-27T22:54:00.217Z,3.87
2019-06-27T22:56:32.039Z,3.03
2019-06-27T22:59:03.743Z,4.00
2019-06-27T23:01:35.444Z,3.30
2019-06-27T23:04:07.156Z,3.63
2019-06-27T23:06:38.867Z,3.70
2019-06-27T23:09:12.170Z,3.27
2019-06-27T23:11:44.000Z,4.27
2019-06-27T23:14:15.708Z,3.57
2019-06-27T23:16:47.429Z,3.93
2019-06-27T23:19:19.130Z,3.60
2019-06-27T23:21:50.949Z,3.57
2019-06-27T23:24:22.640Z,3.47
2019-06-27T23:26:54.380Z,3.57
2019-06-27T23:29:26.092Z,3.93
2019-06-27T23:31:57.809Z,3.43
2019-06-27T23:34:29.611Z,4.20
2019-06-27T23:37:01.336Z,4.27
2019-06-27T23:39:33.053Z,4.33
2019-06-27T23:42:04.798Z,4.50
2019-06-27T23:44:36.600Z,3.83
2019-06-27T23:47:08.424Z,4.30
2019-06-27T23:49:40.261Z,3.77
2019-06-27T23:52:12.123Z,4.30
2019-06-27T23:54:43.898Z,4.20
2019-06-27T23:57:15.706Z,4.10
2019-06-27T23:59:47.433Z,4.20
